TAF Text Data
IDs:
Format:
Raw Decoded Include METAR

Data at: 0444 UTC 18 Oct 2018

KDRO 180353Z AUTO 08003KT 10SM BKN046 OVC075 07/04 A3038 RMK AO2 SLP276 T00720039

KDRO 172338Z 1800/1824 10009KT P6SM VCSH FEW060 SCT080 OVC100
  FM180800 VRB04KT P6SM VCSH OVC030
  FM181200 VRB04KT P6SM VCSH BKN025 OVC030
  FM181600 10005KT P6SM VCSH BKN020 OVC035
  FM181900 12006KT P6SM SCT025 BKN035